sensor_id;sensor_type;location;lat;lon;timestamp;noise_LAeq;noise_LA_min;noise_LA_max;noise_LA01;noise_LA95
67308;Laerm;57662;51.436;5.978;2024-03-02T00:00:05;38.42;37.26;44.97;;
67308;Laerm;57662;51.436;5.978;2024-03-02T00:00:22;38.88;37.13;46.62;;
67308;Laerm;57662;51.436;5.978;2024-03-02T00:00:32;40.80;37.21;58.49;;
67308;Laerm;57662;51.436;5.978;2024-03-02T00:00:42;38.24;37.30;39.33;;
67308;Laerm;57662;51.436;5.978;2024-03-02T00:00:52;38.24;37.22;39.34;;
67308;Laerm;57662;51.436;5.978;2024-03-02T00:01:03;38.30;37.34;41.16;;
67308;Laerm;57662;51.436;5.978;2024-03-02T00:01:13;38.22;36.66;39.39;;
67308;Laerm;57662;51.436;5.978;2024-03-02T00:01:24;38.22;37.06;41.28;;
67308;Laerm;57662;51.436;5.978;2024-03-02T00:01:34;38.20;37.24;39.09;;
67308;Laerm;57662;51.436;5.978;2024-03-02T00:01:44;38.24;37.18;39.40;;
67308;Laerm;57662;51.436;5.978;2024-03-02T00:01:54;38.30;37.26;41.59;;
67308;Laerm;57662;51.436;5.978;2024-03-02T00:02:08;38.24;37.33;39.03;;
67308;Laerm;57662;51.436;5.978;2024-03-02T00:02:18;38.41;37.33;39.61;;
67308;Laerm;57662;51.436;5.978;2024-03-02T00:02:32;39.36;37.64;47.34;;
67308;Laerm;57662;51.436;5.978;2024-03-02T00:02:43;39.05;37.50;43.41;;
67308;Laerm;57662;51.436;5.978;2024-03-02T00:02:54;38.81;37.65;41.09;;
67308;Laerm;57662;51.436;5.978;2024-03-02T00:03:05;40.77;37.36;53.46;;
67308;Laerm;57662;51.436;5.978;2024-03-02T00:03:17;38.68;37.42;41.73;;
67308;Laerm;57662;51.436;5.978;2024-03-02T00:03:29;39.36;37.39;52.52;;
67308;Laerm;57662;51.436;5.978;2024-03-02T00:03:40;38.43;37.32;41.86;;
67308;Laerm;57662;51.436;5.978;2024-03-02T00:03:52;38.36;37.30;39.57;;
67308;Laerm;57662;51.436;5.978;2024-03-02T00:04:03;38.29;37.03;39.22;;
67308;Laerm;57662;51.436;5.978;2024-03-02T00:04:14;38.62;37.36;44.77;;
67308;Laerm;57662;51.436;5.978;2024-03-02T00:04:24;39.17;37.17;49.03;;
67308;Laerm;57662;51.436;5.978;2024-03-02T00:04:34;38.29;37.28;41.76;;
67308;Laerm;57662;51.436;5.978;2024-03-02T00:04:46;38.30;37.20;39.17;;
67308;Laerm;57662;51.436;5.978;2024-03-02T00:04:57;38.25;37.09;39.10;;
67308;Laerm;57662;51.436;5.978;2024-03-02T00:05:07;38.27;37.40;39.25;;
67308;Laerm;57662;51.436;5.978;2024-03-02T00:05:18;38.33;37.16;39.44;;
67308;Laerm;57662;51.436;5.978;2024-03-02T00:05:29;38.35;37.40;39.33;;
67308;Laerm;57662;51.436;5.978;2024-03-02T00:05:39;38.65;37.22;42.27;;
67308;Laerm;57662;51.436;5.978;2024-03-02T00:05:50;38.29;37.48;40.44;;
67308;Laerm;57662;51.436;5.978;2024-03-02T00:06:01;38.57;37.33;44.38;;
67308;Laerm;57662;51.436;5.978;2024-03-02T00:06:12;38.20;36.87;39.46;;
67308;Laerm;57662;51.436;5.978;2024-03-02T00:06:22;38.41;37.34;42.89;;
67308;Laerm;57662;51.436;5.978;2024-03-02T00:06:32;38.44;37.27;41.77;;
67308;Laerm;57662;51.436;5.978;2024-03-02T00:06:43;38.28;37.28;39.84;;
67308;Laerm;57662;51.436;5.978;2024-03-02T00:06:53;38.27;37.13;39.11;;
67308;Laerm;57662;51.436;5.978;2024-03-02T00:07:05;38.16;36.87;39.30;;
67308;Laerm;57662;51.436;5.978;2024-03-02T00:07:16;38.23;37.23;39.08;;
67308;Laerm;57662;51.436;5.978;2024-03-02T00:07:27;38.30;37.10;39.21;;
67308;Laerm;57662;51.436;5.978;2024-03-02T00:07:41;38.17;37.29;39.05;;
67308;Laerm;57662;51.436;5.978;2024-03-02T00:07:54;38.22;37.22;39.22;;
67308;Laerm;57662;51.436;5.978;2024-03-02T00:08:08;38.23;37.21;39.17;;
67308;Laerm;57662;51.436;5.978;2024-03-02T00:08:24;38.25;36.92;39.10;;
67308;Laerm;57662;51.436;5.978;2024-03-02T00:08:38;38.34;37.35;42.50;;
67308;Laerm;57662;51.436;5.978;2024-03-02T00:08:52;38.25;36.97;41.37;;
67308;Laerm;57662;51.436;5.978;2024-03-02T00:09:06;38.31;37.27;41.54;;
67308;Laerm;57662;51.436;5.978;2024-03-02T00:09:19;38.25;36.97;39.77;;
67308;Laerm;57662;51.436;5.978;2024-03-02T00:09:29;38.25;36.85;39.19;;
67308;Laerm;57662;51.436;5.978;2024-03-02T00:09:39;38.23;37.23;39.25;;
67308;Laerm;57662;51.436;5.978;2024-03-02T00:09:52;38.32;37.47;39.96;;
67308;Laerm;57662;51.436;5.978;2024-03-02T00:10:07;38.24;37.35;39.41;;
67308;Laerm;57662;51.436;5.978;2024-03-02T00:10:51;39.97;37.16;59.61;;
67308;Laerm;57662;51.436;5.978;2024-03-02T00:10:58;38.22;37.16;39.48;;
67308;Laerm;57662;51.436;5.978;2024-03-02T00:11:08;38.23;37.13;39.15;;
67308;Laerm;57662;51.436;5.978;2024-03-02T00:11:21;38.16;36.99;39.46;;
67308;Laerm;57662;51.436;5.978;2024-03-02T00:11:34;38.17;37.07;39.26;;
67308;Laerm;57662;51.436;5.978;2024-03-02T00:11:44;38.20;37.23;39.17;;
67308;Laerm;57662;51.436;5.978;2024-03-02T00:11:54;38.26;37.17;40.02;;
67308;Laerm;57662;51.436;5.978;2024-03-02T00:12:05;38.26;37.26;39.16;;
67308;Laerm;57662;51.436;5.978;2024-03-02T00:12:15;39.17;36.79;46.12;;
67308;Laerm;57662;51.436;5.978;2024-03-02T00:12:26;38.22;37.09;39.47;;
67308;Laerm;57662;51.436;5.978;2024-03-02T00:12:36;47.12;37.75;65.31;;
67308;Laerm;57662;51.436;5.978;2024-03-02T00:12:47;39.07;37.52;41.87;;
67308;Laerm;57662;51.436;5.978;2024-03-02T00:12:57;38.26;37.32;39.28;;
67308;Laerm;57662;51.436;5.978;2024-03-02T00:13:08;38.79;37.20;45.42;;
67308;Laerm;57662;51.436;5.978;2024-03-02T00:13:20;38.20;36.98;39.15;;
67308;Laerm;57662;51.436;5.978;2024-03-02T00:13:30;38.22;37.24;39.33;;
67308;Laerm;57662;51.436;5.978;2024-03-02T00:13:42;38.23;37.15;39.41;;
67308;Laerm;57662;51.436;5.978;2024-03-02T00:13:52;38.27;37.15;40.87;;
67308;Laerm;57662;51.436;5.978;2024-03-02T00:14:03;38.28;37.16;39.78;;
67308;Laerm;57662;51.436;5.978;2024-03-02T00:14:13;38.25;37.21;41.34;;
67308;Laerm;57662;51.436;5.978;2024-03-02T00:14:24;38.21;36.98;39.06;;
67308;Laerm;57662;51.436;5.978;2024-03-02T00:14:34;38.24;36.89;39.09;;
67308;Laerm;57662;51.436;5.978;2024-03-02T00:14:45;38.26;37.09;39.16;;
67308;Laerm;57662;51.436;5.978;2024-03-02T00:14:56;38.20;37.16;39.39;;
67308;Laerm;57662;51.436;5.978;2024-03-02T00:15:10;38.26;37.01;39.83;;
67308;Laerm;57662;51.436;5.978;2024-03-02T00:15:48;38.45;36.98;40.07;;
67308;Laerm;57662;51.436;5.978;2024-03-02T00:15:59;38.35;37.02;39.65;;
67308;Laerm;57662;51.436;5.978;2024-03-02T00:16:10;38.33;37.16;39.19;;
67308;Laerm;57662;51.436;5.978;2024-03-02T00:16:21;38.30;37.22;39.33;;
67308;Laerm;57662;51.436;5.978;2024-03-02T00:16:32;38.55;37.31;43.96;;
67308;Laerm;57662;51.436;5.978;2024-03-02T00:16:42;38.18;37.21;39.26;;
67308;Laerm;57662;51.436;5.978;2024-03-02T00:16:54;38.27;37.11;39.25;;
67308;Laerm;57662;51.436;5.978;2024-03-02T00:17:09;38.27;37.27;39.27;;
67308;Laerm;57662;51.436;5.978;2024-03-02T00:17:25;38.24;37.20;39.22;;
67308;Laerm;57662;51.436;5.978;2024-03-02T00:17:38;38.40;37.18;46.48;;
67308;Laerm;57662;51.436;5.978;2024-03-02T00:17:52;38.24;37.15;39.27;;
67308;Laerm;57662;51.436;5.978;2024-03-02T00:18:03;38.28;37.30;40.57;;
67308;Laerm;57662;51.436;5.978;2024-03-02T00:18:16;38.24;37.13;39.26;;
67308;Laerm;57662;51.436;5.978;2024-03-02T00:18:32;38.21;36.91;39.56;;
67308;Laerm;57662;51.436;5.978;2024-03-02T00:18:42;39.31;37.16;57.33;;
67308;Laerm;57662;51.436;5.978;2024-03-02T00:18:53;38.75;37.43;45.26;;
67308;Laerm;57662;51.436;5.978;2024-03-02T00:19:03;38.42;37.37;40.80;;
67308;Laerm;57662;51.436;5.978;2024-03-02T00:19:15;38.32;37.39;39.37;;
67308;Laerm;57662;51.436;5.978;2024-03-02T00:19:26;38.25;36.98;39.36;;
67308;Laerm;57662;51.436;5.978;2024-03-02T00:19:38;38.30;37.05;40.81;;
67308;Laerm;57662;51.436;5.978;2024-03-02T00:19:49;38.57;37.26;44.67;;
67308;Laerm;57662;51.436;5.978;2024-03-02T00:20:00;38.33;37.26;39.64;;
67308;Laerm;57662;51.436;5.978;2024-03-02T00:20:10;38.83;37.22;44.31;;
67308;Laerm;57662;51.436;5.978;2024-03-02T00:20:23;38.91;37.26;45.68;;
67308;Laerm;57662;51.436;5.978;2024-03-02T00:20:34;38.37;37.18;39.69;;
67308;Laerm;57662;51.436;5.978;2024-03-02T00:20:44;38.34;36.88;39.16;;
67308;Laerm;57662;51.436;5.978;2024-03-02T00:20:55;39.57;37.34;53.08;;
67308;Laerm;57662;51.436;5.978;2024-03-02T00:21:06;38.25;37.11;39.23;;
67308;Laerm;57662;51.436;5.978;2024-03-02T00:21:19;38.22;37.22;39.08;;
67308;Laerm;57662;51.436;5.978;2024-03-02T00:21:32;38.89;37.24;40.90;;
67308;Laerm;57662;51.436;5.978;2024-03-02T00:21:43;39.50;37.56;42.83;;
67308;Laerm;57662;51.436;5.978;2024-03-02T00:21:53;38.28;37.25;39.21;;
67308;Laerm;57662;51.436;5.978;2024-03-02T00:22:03;38.79;37.21;46.94;;
67308;Laerm;57662;51.436;5.978;2024-03-02T00:22:14;38.51;37.33;47.14;;
67308;Laerm;57662;51.436;5.978;2024-03-02T00:22:24;38.61;37.09;47.94;;
67308;Laerm;57662;51.436;5.978;2024-03-02T00:22:35;38.25;37.12;41.22;;
67308;Laerm;57662;51.436;5.978;2024-03-02T00:22:45;38.49;37.21;40.66;;
67308;Laerm;57662;51.436;5.978;2024-03-02T00:22:58;38.29;37.38;41.22;;
67308;Laerm;57662;51.436;5.978;2024-03-02T00:23:10;38.22;37.20;39.38;;
67308;Laerm;57662;51.436;5.978;2024-03-02T00:23:24;38.23;36.89;39.26;;
67308;Laerm;57662;51.436;5.978;2024-03-02T00:23:34;39.35;37.02;49.91;;
67308;Laerm;57662;51.436;5.978;2024-03-02T00:23:45;38.34;37.12;42.48;;
67308;Laerm;57662;51.436;5.978;2024-03-02T00:23:55;38.24;37.29;40.88;;
67308;Laerm;57662;51.436;5.978;2024-03-02T00:24:07;38.54;37.19;47.76;;
67308;Laerm;57662;51.436;5.978;2024-03-02T00:24:40;38.27;37.05;39.47;;
67308;Laerm;57662;51.436;5.978;2024-03-02T00:24:51;38.21;36.94;39.31;;
67308;Laerm;57662;51.436;5.978;2024-03-02T00:25:03;38.31;37.28;42.71;;
67308;Laerm;57662;51.436;5.978;2024-03-02T00:25:13;38.52;37.20;46.01;;
67308;Laerm;57662;51.436;5.978;2024-03-02T00:25:24;38.37;37.36;42.54;;
67308;Laerm;57662;51.436;5.978;2024-03-02T00:25:38;38.23;37.24;39.16;;
67308;Laerm;57662;51.436;5.978;2024-03-02T00:25:50;38.30;36.99;39.13;;
67308;Laerm;57662;51.436;5.978;2024-03-02T00:26:03;38.93;37.20;46.41;;
67308;Laerm;57662;51.436;5.978;2024-03-02T00:26:13;38.43;37.27;41.03;;
67308;Laerm;57662;51.436;5.978;2024-03-02T00:26:24;39.12;37.38;48.43;;
67308;Laerm;57662;51.436;5.978;2024-03-02T00:26:35;38.38;37.26;41.33;;
67308;Laerm;57662;51.436;5.978;2024-03-02T00:26:46;39.52;37.40;49.37;;
67308;Laerm;57662;51.436;5.978;2024-03-02T00:26:56;41.32;37.27;58.04;;
67308;Laerm;57662;51.436;5.978;2024-03-02T00:27:06;39.01;37.38;51.77;;
67308;Laerm;57662;51.436;5.978;2024-03-02T00:27:17;38.38;36.92;40.21;;
67308;Laerm;57662;51.436;5.978;2024-03-02T00:27:28;38.36;37.08;39.54;;
67308;Laerm;57662;51.436;5.978;2024-03-02T00:27:38;38.32;37.22;39.60;;
67308;Laerm;57662;51.436;5.978;2024-03-02T00:27:49;38.75;37.15;43.65;;
67308;Laerm;57662;51.436;5.978;2024-03-02T00:27:59;38.83;37.20;47.46;;
67308;Laerm;57662;51.436;5.978;2024-03-02T00:28:17;38.33;36.88;39.65;;
67308;Laerm;57662;51.436;5.978;2024-03-02T00:28:38;38.39;37.33;41.38;;
67308;Laerm;57662;51.436;5.978;2024-03-02T00:28:49;38.89;37.09;45.08;;
67308;Laerm;57662;51.436;5.978;2024-03-02T00:29:01;38.38;37.44;39.51;;
67308;Laerm;57662;51.436;5.978;2024-03-02T00:29:11;38.55;37.43;41.98;;
67308;Laerm;57662;51.436;5.978;2024-03-02T00:29:25;38.38;37.30;40.05;;
67308;Laerm;57662;51.436;5.978;2024-03-02T00:29:37;38.36;37.33;39.55;;
67308;Laerm;57662;51.436;5.978;2024-03-02T00:29:49;39.07;37.43;52.94;;
67308;Laerm;57662;51.436;5.978;2024-03-02T00:30:00;38.41;37.11;39.57;;
67308;Laerm;57662;51.436;5.978;2024-03-02T00:30:57;38.53;37.32;40.36;;
67308;Laerm;57662;51.436;5.978;2024-03-02T00:31:07;40.95;37.47;57.95;;
67308;Laerm;57662;51.436;5.978;2024-03-02T00:31:18;39.28;37.17;48.63;;
67308;Laerm;57662;51.436;5.978;2024-03-02T00:31:29;38.93;37.44;49.07;;
67308;Laerm;57662;51.436;5.978;2024-03-02T00:31:40;38.64;37.27;46.26;;
67308;Laerm;57662;51.436;5.978;2024-03-02T00:31:50;38.60;37.37;43.22;;
67308;Laerm;57662;51.436;5.978;2024-03-02T00:32:00;38.65;37.57;41.80;;
67308;Laerm;57662;51.436;5.978;2024-03-02T00:32:12;41.16;37.70;56.94;;
67308;Laerm;57662;51.436;5.978;2024-03-02T00:32:23;38.42;37.41;40.80;;
67308;Laerm;57662;51.436;5.978;2024-03-02T00:32:35;38.36;37.08;39.66;;
67308;Laerm;57662;51.436;5.978;2024-03-02T00:32:45;38.36;37.33;39.23;;
67308;Laerm;57662;51.436;5.978;2024-03-02T00:32:55;40.35;37.55;48.78;;
67308;Laerm;57662;51.436;5.978;2024-03-02T00:33:08;39.93;37.37;50.27;;
67308;Laerm;57662;51.436;5.978;2024-03-02T00:33:19;38.71;37.56;42.17;;
67308;Laerm;57662;51.436;5.978;2024-03-02T00:33:40;38.54;37.42;43.56;;
67308;Laerm;57662;51.436;5.978;2024-03-02T00:33:50;38.57;37.16;42.69;;
67308;Laerm;57662;51.436;5.978;2024-03-02T00:34:01;42.80;37.66;55.90;;
67308;Laerm;57662;51.436;5.978;2024-03-02T00:34:14;49.40;37.02;70.33;;
67308;Laerm;57662;51.436;5.978;2024-03-02T00:34:28;38.44;37.57;39.67;;
67308;Laerm;57662;51.436;5.978;2024-03-02T00:34:39;39.52;37.41;49.27;;
67308;Laerm;57662;51.436;5.978;2024-03-02T00:34:49;38.47;37.43;39.94;;
67308;Laerm;57662;51.436;5.978;2024-03-02T00:35:00;38.73;37.34;47.44;;
67308;Laerm;57662;51.436;5.978;2024-03-02T00:35:10;38.46;37.33;40.12;;
67308;Laerm;57662;51.436;5.978;2024-03-02T00:35:21;38.50;37.51;41.40;;
67308;Laerm;57662;51.436;5.978;2024-03-02T00:35:33;44.05;37.45;60.77;;
67308;Laerm;57662;51.436;5.978;2024-03-02T00:35:46;44.13;37.65;60.86;;
67308;Laerm;57662;51.436;5.978;2024-03-02T00:35:56;46.64;37.65;64.19;;
67308;Laerm;57662;51.436;5.978;2024-03-02T00:36:07;38.67;37.67;42.47;;
67308;Laerm;57662;51.436;5.978;2024-03-02T00:36:25;38.58;37.61;41.53;;
67308;Laerm;57662;51.436;5.978;2024-03-02T00:36:36;39.97;37.21;47.49;;
67308;Laerm;57662;51.436;5.978;2024-03-02T00:36:46;38.45;37.36;40.01;;
67308;Laerm;57662;51.436;5.978;2024-03-02T00:36:58;38.66;37.64;39.97;;
67308;Laerm;57662;51.436;5.978;2024-03-02T00:37:09;38.53;37.34;39.68;;
67308;Laerm;57662;51.436;5.978;2024-03-02T00:37:21;38.52;37.58;40.32;;
67308;Laerm;57662;51.436;5.978;2024-03-02T00:37:32;38.51;37.61;39.34;;
67308;Laerm;57662;51.436;5.978;2024-03-02T00:37:42;38.87;37.49;43.90;;
67308;Laerm;57662;51.436;5.978;2024-03-02T00:37:54;38.92;37.80;41.03;;
67308;Laerm;57662;51.436;5.978;2024-03-02T00:38:05;39.26;37.84;43.38;;
67308;Laerm;57662;51.436;5.978;2024-03-02T00:38:16;48.47;37.74;70.96;;
67308;Laerm;57662;51.436;5.978;2024-03-02T00:38:27;39.72;37.99;47.89;;
67308;Laerm;57662;51.436;5.978;2024-03-02T00:38:47;42.33;37.32;59.08;;
67308;Laerm;57662;51.436;5.978;2024-03-02T00:38:57;38.86;37.49;48.85;;
67308;Laerm;57662;51.436;5.978;2024-03-02T00:39:08;38.52;37.61;39.54;;
67308;Laerm;57662;51.436;5.978;2024-03-02T00:39:18;38.57;37.46;39.58;;
67308;Laerm;57662;51.436;5.978;2024-03-02T00:39:28;38.49;37.51;39.72;;
67308;Laerm;57662;51.436;5.978;2024-03-02T00:39:39;38.53;37.55;40.16;;
67308;Laerm;57662;51.436;5.978;2024-03-02T00:39:49;38.53;37.55;40.00;;
67308;Laerm;57662;51.436;5.978;2024-03-02T00:40:00;38.59;37.58;41.82;;
67308;Laerm;57662;51.436;5.978;2024-03-02T00:40:10;38.59;37.59;39.55;;
67308;Laerm;57662;51.436;5.978;2024-03-02T00:40:23;38.86;37.24;43.68;;
67308;Laerm;57662;51.436;5.978;2024-03-02T00:40:37;38.84;37.55;44.49;;
67308;Laerm;57662;51.436;5.978;2024-03-02T00:40:48;39.01;37.80;43.24;;
67308;Laerm;57662;51.436;5.978;2024-03-02T00:40:58;38.85;37.87;40.50;;
67308;Laerm;57662;51.436;5.978;2024-03-02T00:41:09;38.69;37.19;40.19;;
67308;Laerm;57662;51.436;5.978;2024-03-02T00:41:31;38.66;37.54;40.07;;
67308;Laerm;57662;51.436;5.978;2024-03-02T00:41:41;38.62;37.52;39.71;;
67308;Laerm;57662;51.436;5.978;2024-03-02T00:41:54;38.66;37.41;39.63;;
67308;Laerm;57662;51.436;5.978;2024-03-02T00:42:05;38.90;37.74;44.37;;
67308;Laerm;57662;51.436;5.978;2024-03-02T00:42:15;43.45;37.95;56.82;;
67308;Laerm;57662;51.436;5.978;2024-03-02T00:42:25;40.40;38.09;50.24;;
67308;Laerm;57662;51.436;5.978;2024-03-02T00:42:36;41.27;37.65;55.76;;
67308;Laerm;57662;51.436;5.978;2024-03-02T00:42:46;38.59;37.53;40.53;;
67308;Laerm;57662;51.436;5.978;2024-03-02T00:42:56;38.60;37.01;39.68;;
67308;Laerm;57662;51.436;5.978;2024-03-02T00:43:06;42.00;37.51;54.86;;
67308;Laerm;57662;51.436;5.978;2024-03-02T00:43:57;39.08;37.41;47.81;;
67308;Laerm;57662;51.436;5.978;2024-03-02T00:44:08;39.00;37.68;49.46;;
67308;Laerm;57662;51.436;5.978;2024-03-02T00:44:19;39.09;38.06;43.36;;
67308;Laerm;57662;51.436;5.978;2024-03-02T00:44:34;39.30;37.76;43.97;;
67308;Laerm;57662;51.436;5.978;2024-03-02T00:44:45;39.77;37.87;52.40;;
67308;Laerm;57662;51.436;5.978;2024-03-02T00:44:57;48.15;37.93;68.83;;
67308;Laerm;57662;51.436;5.978;2024-03-02T00:45:08;39.38;37.83;45.06;;
67308;Laerm;57662;51.436;5.978;2024-03-02T00:45:20;40.02;37.68;54.76;;
67308;Laerm;57662;51.436;5.978;2024-03-02T00:45:30;39.33;37.90;44.55;;
67308;Laerm;57662;51.436;5.978;2024-03-02T00:45:40;38.87;37.74;41.22;;
67308;Laerm;57662;51.436;5.978;2024-03-02T00:45:51;39.51;38.22;48.40;;
67308;Laerm;57662;51.436;5.978;2024-03-02T00:46:01;39.46;37.97;47.26;;
67308;Laerm;57662;51.436;5.978;2024-03-02T00:46:12;49.45;38.04;66.79;;
67308;Laerm;57662;51.436;5.978;2024-03-02T00:46:23;51.74;38.17;74.12;;
67308;Laerm;57662;51.436;5.978;2024-03-02T00:46:34;46.51;38.43;61.52;;
67308;Laerm;57662;51.436;5.978;2024-03-02T00:46:45;39.13;37.88;44.60;;
67308;Laerm;57662;51.436;5.978;2024-03-02T00:46:55;38.78;37.68;39.97;;
67308;Laerm;57662;51.436;5.978;2024-03-02T00:47:05;38.92;37.71;40.71;;
67308;Laerm;57662;51.436;5.978;2024-03-02T00:47:17;38.91;37.57;40.70;;
67308;Laerm;57662;51.436;5.978;2024-03-02T00:47:27;39.47;37.99;47.77;;
67308;Laerm;57662;51.436;5.978;2024-03-02T00:47:38;40.73;37.73;56.37;;
67308;Laerm;57662;51.436;5.978;2024-03-02T00:47:48;39.23;37.71;48.34;;
67308;Laerm;57662;51.436;5.978;2024-03-02T00:47:59;43.98;37.70;58.65;;
67308;Laerm;57662;51.436;5.978;2024-03-02T00:48:10;44.22;37.38;62.44;;
67308;Laerm;57662;51.436;5.978;2024-03-02T00:48:20;38.82;37.74;45.69;;
67308;Laerm;57662;51.436;5.978;2024-03-02T00:48:31;38.74;37.49;41.22;;
67308;Laerm;57662;51.436;5.978;2024-03-02T00:48:48;38.76;37.61;40.32;;
67308;Laerm;57662;51.436;5.978;2024-03-02T00:48:59;43.46;38.11;61.14;;
67308;Laerm;57662;51.436;5.978;2024-03-02T00:49:23;43.16;37.81;63.10;;
67308;Laerm;57662;51.436;5.978;2024-03-02T00:49:34;40.01;37.82;54.04;;
67308;Laerm;57662;51.436;5.978;2024-03-02T00:49:44;38.95;37.64;42.13;;
67308;Laerm;57662;51.436;5.978;2024-03-02T00:49:57;39.15;37.71;49.52;;
67308;Laerm;57662;51.436;5.978;2024-03-02T00:50:07;38.90;37.82;43.44;;
67308;Laerm;57662;51.436;5.978;2024-03-02T00:50:19;38.73;37.89;40.01;;
67308;Laerm;57662;51.436;5.978;2024-03-02T00:50:31;38.98;37.59;44.21;;
67308;Laerm;57662;51.436;5.978;2024-03-02T00:50:42;40.08;38.00;48.06;;
67308;Laerm;57662;51.436;5.978;2024-03-02T00:50:53;41.39;37.89;58.70;;
67308;Laerm;57662;51.436;5.978;2024-03-02T00:51:03;42.11;37.56;56.87;;
67308;Laerm;57662;51.436;5.978;2024-03-02T00:51:16;39.27;37.47;50.22;;
67308;Laerm;57662;51.436;5.978;2024-03-02T00:51:27;38.69;37.60;39.82;;
67308;Laerm;57662;51.436;5.978;2024-03-02T00:51:39;38.83;37.21;47.54;;
67308;Laerm;57662;51.436;5.978;2024-03-02T00:51:50;41.03;37.67;53.67;;
67308;Laerm;57662;51.436;5.978;2024-03-02T00:52:01;40.31;37.79;55.37;;
67308;Laerm;57662;51.436;5.978;2024-03-02T00:52:11;39.07;37.55;48.36;;
67308;Laerm;57662;51.436;5.978;2024-03-02T00:52:21;39.09;37.94;43.11;;
67308;Laerm;57662;51.436;5.978;2024-03-02T00:52:32;41.28;37.89;55.40;;
67308;Laerm;57662;51.436;5.978;2024-03-02T00:52:43;38.88;37.65;43.05;;
67308;Laerm;57662;51.436;5.978;2024-03-02T00:52:53;38.61;37.42;39.58;;
67308;Laerm;57662;51.436;5.978;2024-03-02T00:53:04;42.57;37.51;60.45;;
67308;Laerm;57662;51.436;5.978;2024-03-02T00:53:14;42.12;37.46;59.40;;
67308;Laerm;57662;51.436;5.978;2024-03-02T00:53:25;39.89;37.87;49.53;;
67308;Laerm;57662;51.436;5.978;2024-03-02T00:53:36;43.43;38.03;61.41;;
67308;Laerm;57662;51.436;5.978;2024-03-02T00:53:47;50.18;38.09;64.36;;
67308;Laerm;57662;51.436;5.978;2024-03-02T00:54:01;49.49;38.72;67.89;;
67308;Laerm;57662;51.436;5.978;2024-03-02T00:54:14;42.99;37.75;62.77;;
67308;Laerm;57662;51.436;5.978;2024-03-02T00:54:25;40.57;38.01;53.09;;
67308;Laerm;57662;51.436;5.978;2024-03-02T00:54:35;50.40;38.16;71.32;;
67308;Laerm;57662;51.436;5.978;2024-03-02T00:54:46;42.24;38.40;53.96;;
67308;Laerm;57662;51.436;5.978;2024-03-02T00:54:56;39.52;38.01;46.30;;
67308;Laerm;57662;51.436;5.978;2024-03-02T00:55:07;38.92;37.59;41.56;;
67308;Laerm;57662;51.436;5.978;2024-03-02T00:55:18;41.80;38.28;53.73;;
67308;Laerm;57662;51.436;5.978;2024-03-02T00:55:28;40.74;37.96;49.94;;
67308;Laerm;57662;51.436;5.978;2024-03-02T00:55:39;39.79;37.75;50.00;;
67308;Laerm;57662;51.436;5.978;2024-03-02T00:55:54;39.21;37.47;45.25;;
67308;Laerm;57662;51.436;5.978;2024-03-02T00:56:04;39.01;37.78;40.69;;
67308;Laerm;57662;51.436;5.978;2024-03-02T00:56:19;41.37;38.12;55.71;;
67308;Laerm;57662;51.436;5.978;2024-03-02T00:56:29;39.12;37.93;41.91;;
67308;Laerm;57662;51.436;5.978;2024-03-02T00:56:41;39.40;37.94;43.99;;
67308;Laerm;57662;51.436;5.978;2024-03-02T00:56:52;44.08;38.14;59.96;;
67308;Laerm;57662;51.436;5.978;2024-03-02T00:57:05;39.94;37.52;51.49;;
67308;Laerm;57662;51.436;5.978;2024-03-02T00:57:15;43.87;37.90;62.27;;
67308;Laerm;57662;51.436;5.978;2024-03-02T00:57:25;39.84;37.83;47.12;;
67308;Laerm;57662;51.436;5.978;2024-03-02T00:57:36;39.00;37.68;41.23;;
67308;Laerm;57662;51.436;5.978;2024-03-02T00:57:47;38.97;37.55;44.22;;
67308;Laerm;57662;51.436;5.978;2024-03-02T00:57:57;38.92;37.87;40.82;;
67308;Laerm;57662;51.436;5.978;2024-03-02T00:58:08;40.26;38.18;48.52;;
67308;Laerm;57662;51.436;5.978;2024-03-02T00:58:18;39.83;37.91;50.04;;
67308;Laerm;57662;51.436;5.978;2024-03-02T00:58:28;38.82;37.66;39.79;;
67308;Laerm;57662;51.436;5.978;2024-03-02T00:58:39;44.47;37.94;61.48;;
67308;Laerm;57662;51.436;5.978;2024-03-02T00:58:49;38.74;37.55;39.68;;
67308;Laerm;57662;51.436;5.978;2024-03-02T00:59:00;38.69;37.44;39.63;;
67308;Laerm;57662;51.436;5.978;2024-03-02T00:59:10;38.69;37.72;40.64;;
67308;Laerm;57662;51.436;5.978;2024-03-02T00:59:21;41.45;37.49;52.45;;
67308;Laerm;57662;51.436;5.978;2024-03-02T00:59:31;40.35;37.49;58.24;;
67308;Laerm;57662;51.436;5.978;2024-03-02T00:59:41;38.67;37.46;39.50;;
67308;Laerm;57662;51.436;5.978;2024-03-02T00:59:52;38.70;37.70;39.85;;
67308;Laerm;57662;51.436;5.978;2024-03-02T01:00:02;38.66;37.71;39.58;;
67308;Laerm;57662;51.436;5.978;2024-03-02T01:00:14;39.46;37.54;46.83;;
67308;Laerm;57662;51.436;5.978;2024-03-02T01:00:27;38.94;37.63;44.17;;
67308;Laerm;57662;51.436;5.978;2024-03-02T01:00:37;39.03;37.64;42.89;;
67308;Laerm;57662;51.436;5.978;2024-03-02T01:00:48;38.72;37.79;39.79;;
67308;Laerm;57662;51.436;5.978;2024-03-02T01:00:58;38.65;37.63;39.64;;
67308;Laerm;57662;51.436;5.978;2024-03-02T01:01:08;38.65;37.67;39.56;;
67308;Laerm;57662;51.436;5.978;2024-03-02T01:01:19;39.67;37.56;50.85;;
67308;Laerm;57662;51.436;5.978;2024-03-02T01:01:29;38.63;37.75;40.36;;
67308;Laerm;57662;51.436;5.978;2024-03-02T01:01:40;38.58;37.60;39.54;;
67308;Laerm;57662;51.436;5.978;2024-03-02T01:01:50;38.53;37.19;39.72;;
67308;Laerm;57662;51.436;5.978;2024-03-02T01:02:01;38.60;37.58;41.64;;
67308;Laerm;57662;51.436;5.978;2024-03-02T01:02:11;38.60;37.65;39.53;;
67308;Laerm;57662;51.436;5.978;2024-03-02T01:02:21;39.10;37.17;45.47;;
67308;Laerm;57662;51.436;5.978;2024-03-02T01:02:32;39.23;37.73;51.76;;
67308;Laerm;57662;51.436;5.978;2024-03-02T01:02:42;40.36;37.54;52.10;;
67308;Laerm;57662;51.436;5.978;2024-03-02T01:02:54;38.74;37.37;43.33;;
67308;Laerm;57662;51.436;5.978;2024-03-02T01:03:04;39.66;37.40;50.76;;
67308;Laerm;57662;51.436;5.978;2024-03-02T01:03:15;40.28;37.64;54.27;;
67308;Laerm;57662;51.436;5.978;2024-03-02T01:03:25;39.23;37.56;50.83;;
67308;Laerm;57662;51.436;5.978;2024-03-02T01:03:36;39.32;38.03;43.94;;
67308;Laerm;57662;51.436;5.978;2024-03-02T01:03:47;39.02;38.07;40.07;;
67308;Laerm;57662;51.436;5.978;2024-03-02T01:03:58;39.40;37.93;43.46;;
67308;Laerm;57662;51.436;5.978;2024-03-02T01:04:09;39.91;37.86;49.53;;
67308;Laerm;57662;51.436;5.978;2024-03-02T01:04:19;40.24;38.44;48.85;;
67308;Laerm;57662;51.436;5.978;2024-03-02T01:04:29;43.33;38.24;60.52;;
67308;Laerm;57662;51.436;5.978;2024-03-02T01:04:40;52.51;38.18;73.36;;
67308;Laerm;57662;51.436;5.978;2024-03-02T01:04:50;40.18;37.94;53.39;;
67308;Laerm;57662;51.436;5.978;2024-03-02T01:05:00;40.68;37.66;50.93;;
67308;Laerm;57662;51.436;5.978;2024-03-02T01:05:13;41.36;37.52;57.28;;
67308;Laerm;57662;51.436;5.978;2024-03-02T01:05:23;39.03;37.66;47.12;;
67308;Laerm;57662;51.436;5.978;2024-03-02T01:05:33;38.54;37.00;39.55;;
67308;Laerm;57662;51.436;5.978;2024-03-02T01:05:43;38.80;37.76;44.42;;
67308;Laerm;57662;51.436;5.978;2024-03-02T01:05:54;39.28;37.66;51.50;;
67308;Laerm;57662;51.436;5.978;2024-03-02T01:06:04;38.58;37.41;40.77;;
67308;Laerm;57662;51.436;5.978;2024-03-02T01:06:15;38.81;37.68;42.16;;